Impacts TAF Board
For situational awareness. Not to be used for flight planning purposes.
IDs:

KTCS - Truth or Consequence, NM, US

Issued at 1720 UTC 08 Aug 2020
Updated at 2146 UTC 08 Aug 2020
Potential Impact None Slight Moderate High
Time2053Z 08/22Z 08/23Z 09/00Z 09/01Z 09/02Z 09/03Z 09/04Z 09/05Z 09/06Z 09/07Z 09/08Z 09/09Z 09/10Z>>
Type OBS PRVL PRVL PRVL PRVL PRVL PRVL PRVL PRVL PRVL PRVL PRVL PRVL PRVL
VIS 10 >6 >6 >6 >6 >6 >6 >6 >6 >6 >6 >6 >6 >6
CIG -- 120 120 200 200 200 200 200 200 200 200 200 200 200
Cover CLR BKN BKN BKN BKN BKN BKN BKN BKN BKN BKN BKN BKN BKN
FltCat VFR VFR VFR VFR VFR VFR VFR VFR VFR VFR VFR VFR VFR VFR
WX -- VCTS VCTS -- -- -- -- -- -- -- -- -- -- --
WDir 50 180 180 310 310 310 310 310 310 310 310 310 310 310
WSpd 9 7 7 9 9 9 9 9 9 9 9 9 9 9
WGst 16 -- -- -- -- -- -- -- -- -- -- -- -- --
Raw TAF
KTCS 081720Z 0818/0918 16004KT P6SM SKC
  FM082000 18007KT P6SM VCTS SCT080CB BKN120
  FM090000 31009KT P6SM SCT100 BKN200


Raw METAR
KTCS 082053Z AUTO 05009G16KT 030V100 10SM CLR 36/06 A3014 RMK AO2 SLP104 T03560061 58018
KTCS 081953Z AUTO 04006KT 10SM CLR 35/06 A3016 RMK AO2 SLP112 T03500061
KTCS 081853Z AUTO 10SM CLR 34/06 A3018 RMK AO2 SLP119 T03390056

METAR Board
Radar Display
Forecast Discussion
For situational awareness. Not to be used for flight planning purposes.